sensor_id;sensor_type;location;lat;lon;timestamp;pressure;altitude;pressure_sealevel;temperature;humidity
2397;BME280;1209;48.410;9.054;2023-03-26T00:01:21;95787.44;;;7.50;100.00
2397;BME280;1209;48.410;9.054;2023-03-26T00:03:48;95790.06;;;7.58;100.00
2397;BME280;1209;48.410;9.054;2023-03-26T00:06:19;95792.47;;;7.60;100.00
2397;BME280;1209;48.410;9.054;2023-03-26T00:08:47;95779.81;;;7.57;100.00
2397;BME280;1209;48.410;9.054;2023-03-26T00:11:14;95790.16;;;7.73;100.00
2397;BME280;1209;48.410;9.054;2023-03-26T00:13:40;95785.44;;;7.77;100.00
2397;BME280;1209;48.410;9.054;2023-03-26T00:16:10;95789.97;;;7.75;100.00
2397;BME280;1209;48.410;9.054;2023-03-26T00:18:38;95789.31;;;7.81;100.00
2397;BME280;1209;48.410;9.054;2023-03-26T00:21:05;95791.25;;;7.79;100.00
2397;BME280;1209;48.410;9.054;2023-03-26T00:23:33;95781.81;;;7.86;100.00
2397;BME280;1209;48.410;9.054;2023-03-26T00:26:00;95783.13;;;7.82;100.00
2397;BME280;1209;48.410;9.054;2023-03-26T00:28:27;95782.44;;;7.88;100.00
2397;BME280;1209;48.410;9.054;2023-03-26T00:31:01;95792.53;;;7.83;100.00
2397;BME280;1209;48.410;9.054;2023-03-26T00:33:27;95788.31;;;7.82;100.00
2397;BME280;1209;48.410;9.054;2023-03-26T00:35:54;95792.53;;;7.83;100.00
2397;BME280;1209;48.410;9.054;2023-03-26T00:38:21;95789.31;;;7.81;100.00
2397;BME280;1209;48.410;9.054;2023-03-26T00:40:49;95789.66;;;7.78;100.00
2397;BME280;1209;48.410;9.054;2023-03-26T00:43:16;95782.19;;;7.75;100.00
2397;BME280;1209;48.410;9.054;2023-03-26T00:45:53;95785.75;;;7.74;100.00
2397;BME280;1209;48.410;9.054;2023-03-26T00:48:20;95778.31;;;7.71;100.00
2397;BME280;1209;48.410;9.054;2023-03-26T00:50:46;95768.94;;;7.62;100.00
2397;BME280;1209;48.410;9.054;2023-03-26T00:53:13;95779.50;;;7.60;100.00
2397;BME280;1209;48.410;9.054;2023-03-26T00:55:40;95784.00;;;7.66;100.00
2397;BME280;1209;48.410;9.054;2023-03-26T00:58:06;95789.34;;;7.73;100.00
2397;BME280;1209;48.410;9.054;2023-03-26T01:00:36;95769.75;;;7.62;100.00
2397;BME280;1209;48.410;9.054;2023-03-26T01:03:04;95776.09;;;7.51;100.00
2397;BME280;1209;48.410;9.054;2023-03-26T01:08:02;95765.38;;;7.46;100.00
2397;BME280;1209;48.410;9.054;2023-03-26T01:10:28;95756.34;;;7.34;100.00
2397;BME280;1209;48.410;9.054;2023-03-26T01:12:54;95745.78;;;7.36;100.00
2397;BME280;1209;48.410;9.054;2023-03-26T01:15:19;95738.81;;;7.36;100.00
2397;BME280;1209;48.410;9.054;2023-03-26T01:17:46;95738.31;;;7.33;100.00
2397;BME280;1209;48.410;9.054;2023-03-26T01:20:19;95728.09;;;7.31;100.00
2397;BME280;1209;48.410;9.054;2023-03-26T01:22:53;95727.31;;;7.22;100.00
2397;BME280;1209;48.410;9.054;2023-03-26T01:25:24;95721.25;;;7.38;100.00
2397;BME280;1209;48.410;9.054;2023-03-26T01:27:54;95716.22;;;7.37;100.00
2397;BME280;1209;48.410;9.054;2023-03-26T01:35:43;95716.75;;;7.32;100.00
2397;BME280;1209;48.410;9.054;2023-03-26T01:40:58;95712.72;;;7.21;100.00
2397;BME280;1209;48.410;9.054;2023-03-26T01:43:32;95701.66;;;7.28;100.00
2397;BME280;1209;48.410;9.054;2023-03-26T01:46:04;95693.31;;;7.40;100.00
2397;BME280;1209;48.410;9.054;2023-03-26T01:48:33;95688.66;;;7.36;100.00
2397;BME280;1209;48.410;9.054;2023-03-26T01:51:00;95680.63;;;7.45;100.00
2397;BME280;1209;48.410;9.054;2023-03-26T01:53:25;95676.13;;;7.39;100.00
2397;BME280;1209;48.410;9.054;2023-03-26T01:56:08;95664.88;;;7.47;100.00
2397;BME280;1209;48.410;9.054;2023-03-26T02:01:59;95645.84;;;7.54;100.00
2397;BME280;1209;48.410;9.054;2023-03-26T02:07:08;95630.44;;;7.53;100.00
2397;BME280;1209;48.410;9.054;2023-03-26T02:09:42;95632.56;;;7.49;100.00
2397;BME280;1209;48.410;9.054;2023-03-26T02:12:10;95623.59;;;7.60;100.00
2397;BME280;1209;48.410;9.054;2023-03-26T02:14:36;95625.22;;;7.53;100.00
2397;BME280;1209;48.410;9.054;2023-03-26T02:17:02;95625.69;;;7.56;100.00
2397;BME280;1209;48.410;9.054;2023-03-26T02:19:27;95616.94;;;7.57;100.00
2397;BME280;1209;48.410;9.054;2023-03-26T02:21:53;95611.78;;;7.49;100.00
2397;BME280;1209;48.410;9.054;2023-03-26T02:24:24;95613.91;;;7.46;100.00
2397;BME280;1209;48.410;9.054;2023-03-26T02:26:49;95601.84;;;7.53;100.00
2397;BME280;1209;48.410;9.054;2023-03-26T02:29:15;95588.88;;;7.53;100.00
2397;BME280;1209;48.410;9.054;2023-03-26T02:31:47;95586.16;;;7.46;100.00
2397;BME280;1209;48.410;9.054;2023-03-26T02:34:14;95584.97;;;7.57;100.00
2397;BME280;1209;48.410;9.054;2023-03-26T02:36:40;95582.19;;;7.58;100.00
2397;BME280;1209;48.410;9.054;2023-03-26T02:39:08;95574.22;;;7.60;100.00
2397;BME280;1209;48.410;9.054;2023-03-26T02:41:35;95575.59;;;7.71;100.00
2397;BME280;1209;48.410;9.054;2023-03-26T02:44:01;95564.34;;;7.78;100.00
2397;BME280;1209;48.410;9.054;2023-03-26T02:46:26;95559.31;;;7.77;100.00
2397;BME280;1209;48.410;9.054;2023-03-26T02:48:51;95559.72;;;7.88;100.00
2397;BME280;1209;48.410;9.054;2023-03-26T02:51:16;95543.91;;;7.75;100.00
2397;BME280;1209;48.410;9.054;2023-03-26T02:53:42;95538.06;;;7.73;100.00
2397;BME280;1209;48.410;9.054;2023-03-26T02:56:08;95533.41;;;7.69;100.00
2397;BME280;1209;48.410;9.054;2023-03-26T02:58:33;95535.47;;;7.73;100.00
2397;BME280;1209;48.410;9.054;2023-03-26T03:00:59;95531.72;;;7.76;100.00
2397;BME280;1209;48.410;9.054;2023-03-26T03:03:27;95530.28;;;7.73;100.00
2397;BME280;1209;48.410;9.054;2023-03-26T03:05:55;95521.50;;;7.74;100.00
2397;BME280;1209;48.410;9.054;2023-03-26T03:08:23;95517.47;;;7.72;100.00
2397;BME280;1209;48.410;9.054;2023-03-26T03:10:59;95520.31;;;7.62;100.00
2397;BME280;1209;48.410;9.054;2023-03-26T03:13:25;95509.28;;;7.60;100.00
2397;BME280;1209;48.410;9.054;2023-03-26T03:15:50;95506.03;;;7.58;100.00
2397;BME280;1209;48.410;9.054;2023-03-26T03:18:16;95498.25;;;7.58;100.00
2397;BME280;1209;48.410;9.054;2023-03-26T03:20:41;95498.25;;;7.58;100.00
2397;BME280;1209;48.410;9.054;2023-03-26T03:23:06;95499.38;;;7.55;100.00
2397;BME280;1209;48.410;9.054;2023-03-26T03:25:32;95490.38;;;7.43;100.00
2397;BME280;1209;48.410;9.054;2023-03-26T03:27:57;95482.25;;;7.46;100.00
2397;BME280;1209;48.410;9.054;2023-03-26T03:30:23;95477.63;;;7.56;100.00
2397;BME280;1209;48.410;9.054;2023-03-26T03:32:49;95482.00;;;7.56;100.00
2397;BME280;1209;48.410;9.054;2023-03-26T03:35:14;95482.88;;;7.48;100.00
2397;BME280;1209;48.410;9.054;2023-03-26T03:37:40;95484.66;;;7.48;100.00
2397;BME280;1209;48.410;9.054;2023-03-26T03:40:06;95474.22;;;7.56;100.00
2397;BME280;1209;48.410;9.054;2023-03-26T03:42:34;95473.34;;;7.64;100.00
2397;BME280;1209;48.410;9.054;2023-03-26T03:45:00;95471.75;;;7.77;100.00
2397;BME280;1209;48.410;9.054;2023-03-26T03:47:26;95469.97;;;7.93;100.00
2397;BME280;1209;48.410;9.054;2023-03-26T03:49:51;95466.84;;;7.82;100.00
2397;BME280;1209;48.410;9.054;2023-03-26T03:52:17;95451.97;;;7.76;100.00
2397;BME280;1209;48.410;9.054;2023-03-26T03:54:43;95450.44;;;7.82;100.00
2397;BME280;1209;48.410;9.054;2023-03-26T03:57:08;95454.09;;;7.73;100.00
2397;BME280;1209;48.410;9.054;2023-03-26T03:59:33;95443.09;;;7.71;100.00
2397;BME280;1209;48.410;9.054;2023-03-26T04:01:59;95447.66;;;7.69;100.00
2397;BME280;1209;48.410;9.054;2023-03-26T04:04:25;95442.00;;;7.65;100.00
2397;BME280;1209;48.410;9.054;2023-03-26T04:06:50;95432.41;;;7.66;100.00
2397;BME280;1209;48.410;9.054;2023-03-26T04:09:16;95425.25;;;7.68;100.00
2397;BME280;1209;48.410;9.054;2023-03-26T04:11:42;95435.09;;;7.72;100.00
2397;BME280;1209;48.410;9.054;2023-03-26T04:14:07;95421.22;;;7.65;100.00
2397;BME280;1209;48.410;9.054;2023-03-26T04:16:32;95422.28;;;7.71;100.00
2397;BME280;1209;48.410;9.054;2023-03-26T04:18:57;95422.38;;;7.63;100.00
2397;BME280;1209;48.410;9.054;2023-03-26T04:21:26;95430.63;;;7.66;100.00
2397;BME280;1209;48.410;9.054;2023-03-26T04:23:54;95424.63;;;7.66;100.00
2397;BME280;1209;48.410;9.054;2023-03-26T04:26:20;95422.56;;;7.61;100.00
2397;BME280;1209;48.410;9.054;2023-03-26T04:28:52;95424.09;;;7.70;100.00
2397;BME280;1209;48.410;9.054;2023-03-26T04:31:22;95420.84;;;7.68;100.00
2397;BME280;1209;48.410;9.054;2023-03-26T04:33:49;95412.16;;;7.76;100.00
2397;BME280;1209;48.410;9.054;2023-03-26T04:36:18;95396.31;;;7.85;100.00
2397;BME280;1209;48.410;9.054;2023-03-26T04:38:46;95397.19;;;7.93;100.00
2397;BME280;1209;48.410;9.054;2023-03-26T04:41:14;95390.56;;;7.90;100.00
2397;BME280;1209;48.410;9.054;2023-03-26T04:43:40;95397.81;;;7.95;100.00
2397;BME280;1209;48.410;9.054;2023-03-26T04:46:12;95388.97;;;7.89;100.00
2397;BME280;1209;48.410;9.054;2023-03-26T04:48:37;95384.91;;;8.01;100.00
2397;BME280;1209;48.410;9.054;2023-03-26T04:51:03;95386.81;;;8.07;100.00
2397;BME280;1209;48.410;9.054;2023-03-26T04:53:31;95381.50;;;8.01;100.00
2397;BME280;1209;48.410;9.054;2023-03-26T04:56:07;95395.25;;;8.09;100.00
2397;BME280;1209;48.410;9.054;2023-03-26T04:58:35;95386.47;;;8.10;100.00
2397;BME280;1209;48.410;9.054;2023-03-26T05:01:01;95390.28;;;8.00;100.00
2397;BME280;1209;48.410;9.054;2023-03-26T05:03:28;95383.75;;;8.33;100.00
2397;BME280;1209;48.410;9.054;2023-03-26T05:05:57;95367.84;;;8.58;100.00
2397;BME280;1209;48.410;9.054;2023-03-26T05:08:23;95370.91;;;8.46;100.00
2397;BME280;1209;48.410;9.054;2023-03-26T05:10:48;95367.22;;;8.56;100.00
2397;BME280;1209;48.410;9.054;2023-03-26T05:13:14;95364.88;;;8.61;100.00
2397;BME280;1209;48.410;9.054;2023-03-26T05:15:39;95364.88;;;8.61;100.00
2397;BME280;1209;48.410;9.054;2023-03-26T05:18:04;95351.47;;;8.64;100.00
2397;BME280;1209;48.410;9.054;2023-03-26T05:20:30;95339.84;;;8.60;100.00
2397;BME280;1209;48.410;9.054;2023-03-26T05:22:55;95341.06;;;8.64;100.00
2397;BME280;1209;48.410;9.054;2023-03-26T05:25:21;95342.63;;;8.58;100.00
2397;BME280;1209;48.410;9.054;2023-03-26T05:27:46;95331.97;;;8.53;100.00
2397;BME280;1209;48.410;9.054;2023-03-26T05:30:15;95332.25;;;8.43;100.00
2397;BME280;1209;48.410;9.054;2023-03-26T05:32:40;95328.41;;;8.39;100.00
2397;BME280;1209;48.410;9.054;2023-03-26T05:35:06;95319.06;;;8.30;100.00
2397;BME280;1209;48.410;9.054;2023-03-26T05:37:32;95306.88;;;8.31;100.00
2397;BME280;1209;48.410;9.054;2023-03-26T05:39:58;95301.66;;;8.31;100.00
2397;BME280;1209;48.410;9.054;2023-03-26T05:42:23;95300.59;;;8.25;100.00
2397;BME280;1209;48.410;9.054;2023-03-26T05:44:49;95285.94;;;8.17;100.00
2397;BME280;1209;48.410;9.054;2023-03-26T05:47:14;95281.91;;;8.15;100.00
2397;BME280;1209;48.410;9.054;2023-03-26T05:49:40;95288.53;;;8.17;100.00
2397;BME280;1209;48.410;9.054;2023-03-26T05:52:05;95282.97;;;8.20;100.00
2397;BME280;1209;48.410;9.054;2023-03-26T05:54:31;95275.91;;;8.14;100.00
2397;BME280;1209;48.410;9.054;2023-03-26T05:56:56;95276.88;;;8.13;100.00
2397;BME280;1209;48.410;9.054;2023-03-26T05:59:22;95277.81;;;8.06;100.00
2397;BME280;1209;48.410;9.054;2023-03-26T06:01:48;95268.53;;;8.03;100.00
2397;BME280;1209;48.410;9.054;2023-03-26T06:04:15;95264.19;;;8.25;100.00
2397;BME280;1209;48.410;9.054;2023-03-26T06:06:41;95257.50;;;8.16;100.00
2397;BME280;1209;48.410;9.054;2023-03-26T06:09:07;95245.69;;;8.13;100.00
2397;BME280;1209;48.410;9.054;2023-03-26T06:11:33;95242.91;;;8.15;100.00
2397;BME280;1209;48.410;9.054;2023-03-26T06:13:59;95246.91;;;8.17;100.00
2397;BME280;1209;48.410;9.054;2023-03-26T06:16:24;95245.13;;;8.18;100.00
2397;BME280;1209;48.410;9.054;2023-03-26T06:18:49;95237.44;;;8.10;100.00
2397;BME280;1209;48.410;9.054;2023-03-26T06:21:16;95236.22;;;8.06;100.00
2397;BME280;1209;48.410;9.054;2023-03-26T06:23:42;95241.22;;;8.07;100.00
2397;BME280;1209;48.410;9.054;2023-03-26T06:26:07;95229.56;;;8.03;100.00
2397;BME280;1209;48.410;9.054;2023-03-26T06:28:33;95222.22;;;8.07;100.00
2397;BME280;1209;48.410;9.054;2023-03-26T06:31:00;95217.34;;;8.04;100.00
2397;BME280;1209;48.410;9.054;2023-03-26T06:33:26;95213.34;;;8.01;100.00
2397;BME280;1209;48.410;9.054;2023-03-26T06:35:51;95209.41;;;8.05;100.00
2397;BME280;1209;48.410;9.054;2023-03-26T06:38:16;95201.22;;;8.08;100.00
2397;BME280;1209;48.410;9.054;2023-03-26T06:40:42;95212.34;;;8.02;100.00
2397;BME280;1209;48.410;9.054;2023-03-26T06:43:07;95206.53;;;8.00;100.00
2397;BME280;1209;48.410;9.054;2023-03-26T06:45:33;95196.88;;;7.94;100.00
2397;BME280;1209;48.410;9.054;2023-03-26T06:47:58;95183.38;;;7.84;100.00
2397;BME280;1209;48.410;9.054;2023-03-26T06:50:24;95176.38;;;7.84;100.00
2397;BME280;1209;48.410;9.054;2023-03-26T06:52:52;95164.38;;;7.83;100.00
2397;BME280;1209;48.410;9.054;2023-03-26T06:55:18;95164.63;;;7.88;100.00
2397;BME280;1209;48.410;9.054;2023-03-26T06:57:47;95164.06;;;7.93;100.00
2397;BME280;1209;48.410;9.054;2023-03-26T07:00:13;95166.91;;;7.98;100.00
2397;BME280;1209;48.410;9.054;2023-03-26T07:02:38;95166.28;;;7.96;100.00
2397;BME280;1209;48.410;9.054;2023-03-26T07:05:03;95166.47;;;7.95;100.00
2397;BME280;1209;48.410;9.054;2023-03-26T07:07:29;95163.25;;;7.93;100.00
2397;BME280;1209;48.410;9.054;2023-03-26T07:09:54;95161.59;;;7.85;100.00
2397;BME280;1209;48.410;9.054;2023-03-26T07:12:19;95153.78;;;7.85;100.00
2397;BME280;1209;48.410;9.054;2023-03-26T07:14:45;95146.38;;;7.82;100.00
2397;BME280;1209;48.410;9.054;2023-03-26T07:17:10;95143.75;;;7.82;100.00
2397;BME280;1209;48.410;9.054;2023-03-26T07:19:35;95135.97;;;7.82;100.00
2397;BME280;1209;48.410;9.054;2023-03-26T07:22:01;95133.56;;;7.80;100.00
2397;BME280;1209;48.410;9.054;2023-03-26T07:24:26;95123.16;;;7.80;100.00
2397;BME280;1209;48.410;9.054;2023-03-26T07:27:01;95115.00;;;7.83;100.00
2397;BME280;1209;48.410;9.054;2023-03-26T07:29:34;95101.44;;;7.88;100.00
2397;BME280;1209;48.410;9.054;2023-03-26T07:34:44;95091.09;;;7.95;100.00
2397;BME280;1209;48.410;9.054;2023-03-26T07:45:52;95073.50;;;8.18;100.00
2397;BME280;1209;48.410;9.054;2023-03-26T07:48:19;95066.13;;;8.21;100.00
2397;BME280;1209;48.410;9.054;2023-03-26T07:50:46;95053.72;;;8.24;100.00
2397;BME280;1209;48.410;9.054;2023-03-26T07:53:12;95062.72;;;8.21;100.00
2397;BME280;1209;48.410;9.054;2023-03-26T08:07:02;95051.75;;;8.26;100.00
2397;BME280;1209;48.410;9.054;2023-03-26T08:10:08;95046.97;;;8.29;100.00
2397;BME280;1209;48.410;9.054;2023-03-26T08:13:01;95044.19;;;8.31;100.00
2397;BME280;1209;48.410;9.054;2023-03-26T08:19:02;95035.03;;;8.35;100.00
2397;BME280;1209;48.410;9.054;2023-03-26T08:21:37;95026.59;;;8.33;100.00
2397;BME280;1209;48.410;9.054;2023-03-26T08:24:17;95010.81;;;8.34;100.00
2397;BME280;1209;48.410;9.054;2023-03-26T08:27:15;95014.81;;;8.37;100.00
2397;BME280;1209;48.410;9.054;2023-03-26T08:30:34;95022.28;;;8.46;100.00
2397;BME280;1209;48.410;9.054;2023-03-26T08:32:35;95011.56;;;8.56;100.00
2397;BME280;1209;48.410;9.054;2023-03-26T08:35:01;95012.78;;;8.60;100.00
2397;BME280;1209;48.410;9.054;2023-03-26T08:37:28;94995.56;;;8.59;100.00
2397;BME280;1209;48.410;9.054;2023-03-26T08:39:53;95016.00;;;8.69;100.00
2397;BME280;1209;48.410;9.054;2023-03-26T08:50:46;95057.16;;;8.52;100.00
2397;BME280;1209;48.410;9.054;2023-03-26T08:53:29;95065.94;;;8.51;100.00
2397;BME280;1209;48.410;9.054;2023-03-26T08:56:20;95071.28;;;8.43;100.00
2397;BME280;1209;48.410;9.054;2023-03-26T09:02:26;95075.91;;;8.75;100.00
2397;BME280;1209;48.410;9.054;2023-03-26T09:11:36;95083.97;;;8.94;100.00
2397;BME280;1209;48.410;9.054;2023-03-26T09:17:16;95070.09;;;9.28;100.00
2397;BME280;1209;48.410;9.054;2023-03-26T09:34:03;95061.97;;;10.69;100.00
2397;BME280;1209;48.410;9.054;2023-03-26T09:36:52;95060.06;;;11.48;100.00
2397;BME280;1209;48.410;9.054;2023-03-26T09:48:21;95049.84;;;11.01;100.00
2397;BME280;1209;48.410;9.054;2023-03-26T09:53:51;95048.66;;;10.91;100.00
2397;BME280;1209;48.410;9.054;2023-03-26T10:02:34;95022.09;;;11.00;100.00
2397;BME280;1209;48.410;9.054;2023-03-26T10:05:32;95038.22;;;10.91;100.00
2397;BME280;1209;48.410;9.054;2023-03-26T10:10:56;95056.03;;;10.23;100.00
2397;BME280;1209;48.410;9.054;2023-03-26T10:16:40;95101.13;;;8.47;100.00
2397;BME280;1209;48.410;9.054;2023-03-26T10:19:30;95105.50;;;7.97;100.00
2397;BME280;1209;48.410;9.054;2023-03-26T10:27:59;95078.66;;;9.08;100.00
2397;BME280;1209;48.410;9.054;2023-03-26T10:30:45;95079.44;;;9.63;100.00
2397;BME280;1209;48.410;9.054;2023-03-26T10:33:29;95079.25;;;10.70;100.00
2397;BME280;1209;48.410;9.054;2023-03-26T10:41:17;95083.91;;;11.64;100.00
2397;BME280;1209;48.410;9.054;2023-03-26T10:44:08;95098.34;;;11.29;100.00
2397;BME280;1209;48.410;9.054;2023-03-26T10:52:46;95104.66;;;9.50;100.00
2397;BME280;1209;48.410;9.054;2023-03-26T10:55:17;95103.16;;;9.21;100.00
2397;BME280;1209;48.410;9.054;2023-03-26T10:57:54;95112.69;;;8.66;100.00
2397;BME280;1209;48.410;9.054;2023-03-26T11:00:22;95094.25;;;8.61;100.00
2397;BME280;1209;48.410;9.054;2023-03-26T11:11:04;95126.50;;;8.17;100.00
2397;BME280;1209;48.410;9.054;2023-03-26T11:13:52;95139.63;;;8.09;100.00
2397;BME280;1209;48.410;9.054;2023-03-26T11:19:20;95127.56;;;7.80;100.00
2397;BME280;1209;48.410;9.054;2023-03-26T11:22:00;95139.06;;;7.92;100.00
2397;BME280;1209;48.410;9.054;2023-03-26T11:30:26;95137.59;;;8.04;100.00
2397;BME280;1209;48.410;9.054;2023-03-26T11:32:59;95126.75;;;8.01;100.00
2397;BME280;1209;48.410;9.054;2023-03-26T11:35:30;95123.56;;;8.27;100.00
2397;BME280;1209;48.410;9.054;2023-03-26T11:38:02;95123.00;;;9.28;100.00
2397;BME280;1209;48.410;9.054;2023-03-26T11:40:32;95112.31;;;9.77;100.00
2397;BME280;1209;48.410;9.054;2023-03-26T11:43:01;95108.19;;;10.49;100.00
2397;BME280;1209;48.410;9.054;2023-03-26T11:45:34;95104.44;;;11.16;100.00
2397;BME280;1209;48.410;9.054;2023-03-26T11:48:13;95098.28;;;11.49;100.00
2397;BME280;1209;48.410;9.054;2023-03-26T11:50:44;95088.41;;;11.51;100.00
2397;BME280;1209;48.410;9.054;2023-03-26T11:53:14;95079.81;;;11.75;100.00
2397;BME280;1209;48.410;9.054;2023-03-26T11:55:47;95088.72;;;12.06;100.00
2397;BME280;1209;48.410;9.054;2023-03-26T11:58:25;95079.72;;;11.95;100.00
2397;BME280;1209;48.410;9.054;2023-03-26T12:00:54;95086.34;;;12.22;100.00
2397;BME280;1209;48.410;9.054;2023-03-26T12:03:19;95085.44;;;12.10;100.00
2397;BME280;1209;48.410;9.054;2023-03-26T12:05:50;95076.56;;;11.86;100.00
2397;BME280;1209;48.410;9.054;2023-03-26T12:08:29;95055.97;;;12.46;100.00
2397;BME280;1209;48.410;9.054;2023-03-26T12:11:10;95069.00;;;12.71;100.00
2397;BME280;1209;48.410;9.054;2023-03-26T12:13:38;95061.06;;;12.59;100.00
2397;BME280;1209;48.410;9.054;2023-03-26T12:16:10;95056.47;;;12.55;100.00
2397;BME280;1209;48.410;9.054;2023-03-26T12:18:38;95057.94;;;12.51;100.00
2397;BME280;1209;48.410;9.054;2023-03-26T12:21:09;95052.03;;;12.55;100.00
2397;BME280;1209;48.410;9.054;2023-03-26T12:29:08;95033.56;;;12.69;100.00
2397;BME280;1209;48.410;9.054;2023-03-26T12:34:15;95026.16;;;13.02;100.00
2397;BME280;1209;48.410;9.054;2023-03-26T12:36:47;95016.75;;;13.31;100.00
2397;BME280;1209;48.410;9.054;2023-03-26T12:39:26;95014.91;;;13.62;100.00
2397;BME280;1209;48.410;9.054;2023-03-26T12:41:55;95000.72;;;13.39;98.88
2397;BME280;1209;48.410;9.054;2023-03-26T12:44:29;95000.72;;;13.93;100.00
2397;BME280;1209;48.410;9.054;2023-03-26T12:47:20;94995.25;;;14.06;91.17
2397;BME280;1209;48.410;9.054;2023-03-26T12:49:48;94998.94;;;14.52;90.37
2397;BME280;1209;48.410;9.054;2023-03-26T12:55:00;94992.75;;;15.21;90.41
2397;BME280;1209;48.410;9.054;2023-03-26T12:57:32;94992.59;;;14.88;80.06
2397;BME280;1209;48.410;9.054;2023-03-26T13:14:15;94955.84;;;13.71;90.57
2397;BME280;1209;48.410;9.054;2023-03-26T13:20:24;94938.97;;;14.13;87.23
2397;BME280;1209;48.410;9.054;2023-03-26T13:22:41;94943.66;;;14.46;77.03
2397;BME280;1209;48.410;9.054;2023-03-26T13:25:16;94949.50;;;14.25;80.91
2397;BME280;1209;48.410;9.054;2023-03-26T13:28:08;94954.78;;;13.60;84.98
2397;BME280;1209;48.410;9.054;2023-03-26T13:30:40;94960.31;;;12.80;91.71
2397;BME280;1209;48.410;9.054;2023-03-26T13:35:56;94964.56;;;12.20;96.89
2397;BME280;1209;48.410;9.054;2023-03-26T13:38:44;94971.63;;;11.70;94.90
2397;BME280;1209;48.410;9.054;2023-03-26T13:46:51;94949.97;;;12.12;91.70
2397;BME280;1209;48.410;9.054;2023-03-26T13:49:31;94941.47;;;12.53;89.60
2397;BME280;1209;48.410;9.054;2023-03-26T13:52:06;94935.72;;;12.63;87.10
2397;BME280;1209;48.410;9.054;2023-03-26T13:54:39;94929.91;;;12.61;85.64
2397;BME280;1209;48.410;9.054;2023-03-26T13:59:46;94925.25;;;12.45;83.26
2397;BME280;1209;48.410;9.054;2023-03-26T14:04:59;94923.78;;;12.85;81.77
2397;BME280;1209;48.410;9.054;2023-03-26T14:07:36;94917.91;;;13.02;78.12
2397;BME280;1209;48.410;9.054;2023-03-26T14:10:09;94919.00;;;12.94;78.69
2397;BME280;1209;48.410;9.054;2023-03-26T14:12:48;94909.19;;;12.41;76.35
2397;BME280;1209;48.410;9.054;2023-03-26T14:18:45;94922.13;;;12.54;77.91
2397;BME280;1209;48.410;9.054;2023-03-26T14:21:08;94911.19;;;13.06;78.28
2397;BME280;1209;48.410;9.054;2023-03-26T14:23:56;94902.84;;;12.97;72.29
2397;BME280;1209;48.410;9.054;2023-03-26T14:26:49;94929.94;;;12.91;71.69
2397;BME280;1209;48.410;9.054;2023-03-26T14:29:29;94910.91;;;12.29;74.12
2397;BME280;1209;48.410;9.054;2023-03-26T14:32:26;94915.13;;;12.12;73.57
2397;BME280;1209;48.410;9.054;2023-03-26T14:37:51;94915.56;;;11.90;82.89
2397;BME280;1209;48.410;9.054;2023-03-26T14:43:45;94920.25;;;11.82;82.91
2397;BME280;1209;48.410;9.054;2023-03-26T14:49:18;94947.34;;;11.38;84.29
2397;BME280;1209;48.410;9.054;2023-03-26T14:52:04;94953.94;;;11.40;88.07
2397;BME280;1209;48.410;9.054;2023-03-26T14:54:33;94950.00;;;11.24;86.75
2397;BME280;1209;48.410;9.054;2023-03-26T15:02:36;94952.50;;;11.13;94.47
2397;BME280;1209;48.410;9.054;2023-03-26T15:10:42;94946.72;;;10.66;100.00
2397;BME280;1209;48.410;9.054;2023-03-26T15:16:06;94935.97;;;10.36;100.00
2397;BME280;1209;48.410;9.054;2023-03-26T15:43:15;95041.06;;;7.22;100.00
2397;BME280;1209;48.410;9.054;2023-03-26T15:45:52;95030.94;;;7.27;100.00
2397;BME280;1209;48.410;9.054;2023-03-26T15:48:54;95036.41;;;7.17;100.00
2397;BME280;1209;48.410;9.054;2023-03-26T15:54:59;95030.25;;;7.04;100.00
2397;BME280;1209;48.410;9.054;2023-03-26T16:08:50;95051.75;;;7.55;100.00
2397;BME280;1209;48.410;9.054;2023-03-26T16:11:57;95049.50;;;7.67;100.00
2397;BME280;1209;48.410;9.054;2023-03-26T16:17:05;95044.22;;;7.81;100.00
2397;BME280;1209;48.410;9.054;2023-03-26T16:19:57;95037.72;;;7.71;100.00
2397;BME280;1209;48.410;9.054;2023-03-26T16:22:55;95048.69;;;7.66;100.00
2397;BME280;1209;48.410;9.054;2023-03-26T16:25:53;95048.50;;;7.68;100.00
2397;BME280;1209;48.410;9.054;2023-03-26T16:36:28;95065.13;;;7.52;100.00
2397;BME280;1209;48.410;9.054;2023-03-26T16:47:21;95062.75;;;7.36;100.00
2397;BME280;1209;48.410;9.054;2023-03-26T16:50:02;95070.38;;;7.37;100.00
2397;BME280;1209;48.410;9.054;2023-03-26T16:53:04;95076.84;;;7.26;100.00
2397;BME280;1209;48.410;9.054;2023-03-26T16:58:36;95072.09;;;7.30;100.00
2397;BME280;1209;48.410;9.054;2023-03-26T17:01:38;95069.38;;;7.38;100.00
2397;BME280;1209;48.410;9.054;2023-03-26T17:04:23;95079.41;;;7.41;100.00
2397;BME280;1209;48.410;9.054;2023-03-26T17:12:26;95083.97;;;7.39;100.00
2397;BME280;1209;48.410;9.054;2023-03-26T17:15:06;95084.78;;;7.40;100.00
2397;BME280;1209;48.410;9.054;2023-03-26T17:23:29;95089.78;;;7.41;100.00
2397;BME280;1209;48.410;9.054;2023-03-26T17:31:43;95088.81;;;7.42;100.00
2397;BME280;1209;48.410;9.054;2023-03-26T17:45:15;95085.75;;;7.17;100.00
2397;BME280;1209;48.410;9.054;2023-03-26T17:53:51;95070.09;;;7.11;100.00
2397;BME280;1209;48.410;9.054;2023-03-26T17:56:21;95066.84;;;7.09;100.00
2397;BME280;1209;48.410;9.054;2023-03-26T17:58:50;95067.06;;;6.92;100.00
2397;BME280;1209;48.410;9.054;2023-03-26T18:01:24;95067.88;;;6.93;100.00
2397;BME280;1209;48.410;9.054;2023-03-26T18:03:53;95067.44;;;6.89;100.00
2397;BME280;1209;48.410;9.054;2023-03-26T18:06:43;95069.97;;;6.68;100.00
2397;BME280;1209;48.410;9.054;2023-03-26T18:12:41;95069.78;;;6.55;100.00
2397;BME280;1209;48.410;9.054;2023-03-26T18:14:53;95070.22;;;6.58;100.00
2397;BME280;1209;48.410;9.054;2023-03-26T18:17:26;95071.03;;;6.59;100.00
2397;BME280;1209;48.410;9.054;2023-03-26T18:20:02;95084.34;;;6.56;100.00
2397;BME280;1209;48.410;9.054;2023-03-26T18:22:30;95091.06;;;6.50;100.00
2397;BME280;1209;48.410;9.054;2023-03-26T18:24:59;95084.53;;;6.54;100.00
2397;BME280;1209;48.410;9.054;2023-03-26T18:27:31;95090.16;;;6.43;100.00
2397;BME280;1209;48.410;9.054;2023-03-26T18:30:00;95085.34;;;6.40;100.00
2397;BME280;1209;48.410;9.054;2023-03-26T18:32:28;95086.31;;;6.24;100.00
2397;BME280;1209;48.410;9.054;2023-03-26T18:37:23;95091.03;;;6.21;100.00
2397;BME280;1209;48.410;9.054;2023-03-26T18:39:58;95098.19;;;6.19;100.00
2397;BME280;1209;48.410;9.054;2023-03-26T18:42:25;95101.41;;;6.21;100.00
2397;BME280;1209;48.410;9.054;2023-03-26T18:44:51;95097.03;;;6.21;100.00
2397;BME280;1209;48.410;9.054;2023-03-26T18:47:18;95104.00;;;6.21;100.00